createdAt,value
2019-03-24T00:01:14.865Z,12.77
2019-03-24T00:03:44.142Z,12.73
2019-03-24T00:06:13.374Z,12.80
2019-03-24T00:08:42.628Z,14.73
2019-03-24T00:11:11.884Z,13.00
2019-03-24T00:13:41.135Z,11.93
2019-03-24T00:16:12.032Z,13.07
2019-03-24T00:18:41.350Z,12.83
2019-03-24T00:21:10.600Z,13.80
2019-03-24T00:23:39.846Z,13.70
2019-03-24T00:26:09.106Z,14.33
2019-03-24T00:28:38.381Z,13.80
2019-03-24T00:31:07.686Z,13.90
2019-03-24T00:33:36.947Z,14.90
2019-03-24T00:36:06.223Z,14.53
2019-03-24T00:38:35.502Z,14.27
2019-03-24T00:41:04.822Z,15.03
2019-03-24T00:43:34.187Z,14.87
2019-03-24T00:46:03.546Z,12.97
2019-03-24T00:48:38.590Z,13.70
2019-03-24T00:51:10.007Z,14.47
2019-03-24T00:53:39.243Z,12.37
2019-03-24T00:56:08.543Z,13.27
2019-03-24T00:58:37.863Z,14.07
2019-03-24T01:01:07.155Z,14.50
2019-03-24T01:03:36.424Z,14.23
2019-03-24T01:06:05.825Z,12.60
2019-03-24T01:08:35.167Z,12.17
2019-03-24T01:11:04.508Z,13.03
2019-03-24T01:13:33.777Z,14.57
2019-03-24T01:16:03.074Z,11.47
2019-03-24T01:18:32.306Z,13.33
2019-03-24T01:21:01.807Z,13.33
2019-03-24T01:23:31.155Z,10.43
2019-03-24T01:26:00.427Z,12.83
2019-03-24T01:28:29.660Z,10.40
2019-03-24T01:30:59.069Z,10.80
2019-03-24T01:33:28.440Z,10.23
2019-03-24T01:35:57.683Z,8.97
2019-03-24T01:38:26.908Z,9.27
2019-03-24T01:40:56.175Z,7.03
2019-03-24T01:43:25.422Z,7.23
2019-03-24T01:45:58.903Z,7.17
2019-03-24T01:48:25.625Z,7.70
2019-03-24T01:50:54.859Z,7.40
2019-03-24T01:53:43.481Z,7.10
2019-03-24T01:56:12.739Z,7.03
2019-03-24T01:59:01.319Z,6.90
2019-03-24T02:01:30.572Z,6.57
2019-03-24T02:03:59.820Z,8.50
2019-03-24T02:06:29.100Z,7.03
2019-03-24T02:08:58.399Z,7.53
2019-03-24T02:11:27.817Z,6.50
2019-03-24T02:13:59.168Z,6.37
2019-03-24T02:16:28.435Z,6.50
2019-03-24T02:18:58.972Z,6.63
2019-03-24T02:21:28.951Z,7.03
2019-03-24T02:24:00.348Z,8.40
2019-03-24T02:26:29.647Z,6.10
2019-03-24T02:28:59.120Z,6.60
2019-03-24T02:31:28.441Z,6.90
2019-03-24T02:33:57.676Z,6.77
2019-03-24T02:36:46.342Z,6.03
2019-03-24T02:39:15.623Z,6.60
2019-03-24T02:41:44.864Z,6.07
2019-03-24T02:44:14.085Z,5.77
2019-03-24T02:46:43.404Z,5.93
2019-03-24T02:49:12.636Z,6.10
2019-03-24T02:51:41.879Z,5.40
2019-03-24T02:54:11.150Z,6.07
2019-03-24T02:56:59.769Z,6.20
2019-03-24T02:59:29.032Z,5.80
2019-03-24T03:02:17.726Z,6.90
2019-03-24T03:05:07.866Z,6.90
2019-03-24T03:07:37.124Z,5.93
2019-03-24T03:10:10.885Z,5.43
2019-03-24T03:12:40.194Z,6.83
2019-03-24T03:15:11.390Z,5.30
2019-03-24T03:17:40.928Z,5.53
2019-03-24T03:20:11.977Z,5.70
2019-03-24T03:22:41.347Z,5.90
2019-03-24T03:25:16.180Z,5.37
2019-03-24T03:27:45.501Z,6.00
2019-03-24T03:30:16.075Z,5.57
2019-03-24T03:32:45.387Z,5.60
2019-03-24T03:35:14.787Z,4.57
2019-03-24T03:37:44.236Z,5.07
2019-03-24T03:40:14.135Z,7.03
2019-03-24T03:42:43.491Z,6.10
2019-03-24T03:45:14.959Z,5.70
2019-03-24T03:47:44.211Z,5.40
2019-03-24T03:50:13.742Z,5.10
2019-03-24T03:52:43.043Z,5.47
2019-03-24T03:55:12.528Z,7.07
2019-03-24T03:57:41.784Z,5.20
2019-03-24T04:00:11.747Z,4.83
2019-03-24T04:02:41.019Z,5.13
2019-03-24T04:05:10.419Z,6.47
2019-03-24T04:07:39.731Z,4.93
2019-03-24T04:10:09.279Z,5.23
2019-03-24T04:12:57.912Z,5.10
2019-03-24T04:15:46.502Z,4.83
2019-03-24T04:18:15.744Z,5.00
2019-03-24T04:20:45.004Z,5.23
2019-03-24T04:23:14.383Z,4.80
2019-03-24T04:25:43.623Z,5.60
2019-03-24T04:28:12.875Z,6.27
2019-03-24T04:30:42.103Z,6.07
2019-03-24T04:33:30.767Z,6.40
2019-03-24T04:36:00.005Z,5.50
2019-03-24T04:38:29.259Z,5.50
2019-03-24T04:40:58.503Z,5.90
2019-03-24T04:43:27.759Z,5.97
2019-03-24T04:46:16.339Z,5.10
2019-03-24T04:48:45.604Z,6.60
2019-03-24T04:51:14.924Z,7.77
2019-03-24T04:53:44.156Z,6.83
2019-03-24T04:56:13.435Z,5.10
2019-03-24T04:58:42.720Z,4.90
2019-03-24T05:01:11.955Z,6.77
2019-03-24T05:03:41.215Z,6.87
2019-03-24T05:06:10.572Z,6.37
2019-03-24T05:08:40.148Z,6.60
2019-03-24T05:11:09.379Z,7.83
2019-03-24T05:13:38.650Z,6.30
2019-03-24T05:16:07.887Z,5.03
2019-03-24T05:18:56.499Z,6.57
2019-03-24T05:21:25.734Z,7.73
2019-03-24T05:23:54.992Z,6.03
2019-03-24T05:26:24.328Z,6.20
2019-03-24T05:28:53.553Z,7.30
2019-03-24T05:31:22.779Z,6.20
2019-03-24T05:33:52.035Z,7.30
2019-03-24T05:36:40.603Z,6.73
2019-03-24T05:39:09.931Z,7.63
2019-03-24T05:41:39.157Z,8.17
2019-03-24T05:44:08.392Z,6.73
2019-03-24T05:46:37.668Z,6.70
2019-03-24T05:49:09.002Z,7.97
2019-03-24T05:51:38.237Z,7.37
2019-03-24T05:54:07.493Z,8.23
2019-03-24T05:56:36.725Z,7.57
2019-03-24T05:59:05.979Z,7.83
2019-03-24T06:01:35.207Z,7.43
2019-03-24T06:04:23.806Z,7.50
2019-03-24T06:06:53.055Z,7.37
2019-03-24T06:09:22.323Z,7.70
2019-03-24T06:11:51.541Z,7.77
2019-03-24T06:14:20.787Z,9.90
2019-03-24T06:16:50.036Z,7.47
2019-03-24T06:19:38.640Z,8.63
2019-03-24T06:22:07.935Z,9.10
2019-03-24T06:24:37.158Z,8.13
2019-03-24T06:27:06.426Z,8.57
2019-03-24T06:29:35.656Z,9.27
2019-03-24T06:32:04.984Z,9.00
2019-03-24T06:34:35.915Z,9.50
2019-03-24T06:37:05.229Z,8.90
2019-03-24T06:39:53.875Z,12.53
2019-03-24T06:42:23.135Z,13.00
2019-03-24T06:44:52.396Z,12.20
2019-03-24T06:47:23.690Z,13.73
2019-03-24T06:49:52.943Z,11.03
2019-03-24T06:52:22.343Z,9.00
2019-03-24T06:54:51.581Z,9.63
2019-03-24T06:57:20.810Z,10.30
2019-03-24T06:59:50.063Z,11.10
2019-03-24T07:02:19.302Z,9.10
2019-03-24T07:05:08.172Z,10.70
2019-03-24T07:07:37.463Z,10.60
2019-03-24T07:10:08.771Z,10.27
2019-03-24T07:12:38.253Z,9.53
2019-03-24T07:15:08.954Z,10.53
2019-03-24T07:17:38.335Z,10.67
2019-03-24T07:20:12.541Z,10.40
2019-03-24T07:22:42.095Z,11.03
2019-03-24T07:25:11.592Z,10.53
2019-03-24T07:27:40.850Z,10.43
2019-03-24T07:30:11.572Z,9.97
2019-03-24T07:32:40.822Z,10.40
2019-03-24T07:35:10.210Z,9.80
2019-03-24T07:37:39.477Z,9.50
2019-03-24T07:40:28.119Z,9.97
2019-03-24T07:42:57.403Z,10.03
2019-03-24T07:45:26.640Z,9.13
2019-03-24T07:48:19.287Z,10.90
2019-03-24T07:50:46.200Z,9.07
2019-03-24T07:53:15.479Z,9.90
2019-03-24T07:55:44.739Z,9.23
2019-03-24T07:58:14.027Z,10.00
2019-03-24T08:00:43.396Z,10.53
2019-03-24T08:03:12.652Z,9.90
2019-03-24T08:05:41.984Z,10.67
2019-03-24T08:08:30.567Z,8.60
2019-03-24T08:11:00.060Z,9.83
2019-03-24T08:13:29.321Z,8.88
2019-03-24T08:15:58.559Z,8.90
2019-03-24T08:18:30.083Z,9.30
2019-03-24T08:20:58.786Z,11.00
2019-03-24T08:23:28.056Z,11.47
2019-03-24T08:25:57.373Z,10.37
2019-03-24T08:28:26.826Z,8.60
2019-03-24T08:31:15.455Z,9.60
2019-03-24T08:33:44.703Z,10.53
2019-03-24T08:36:33.328Z,11.20
2019-03-24T08:39:03.822Z,10.70
2019-03-24T08:41:33.281Z,11.13
2019-03-24T08:44:02.540Z,10.70
2019-03-24T08:46:31.795Z,10.73
2019-03-24T08:49:01.071Z,10.77
2019-03-24T08:51:30.388Z,11.90
2019-03-24T08:53:59.710Z,11.67
2019-03-24T08:56:29.005Z,12.73
2019-03-24T08:58:58.280Z,12.37
2019-03-24T09:01:27.573Z,12.13
2019-03-24T09:03:56.927Z,11.43
2019-03-24T09:06:26.225Z,11.20
2019-03-24T09:08:55.575Z,11.40
2019-03-24T09:11:31.142Z,14.70
2019-03-24T09:13:55.871Z,11.30
2019-03-24T09:16:25.218Z,13.73
2019-03-24T09:18:54.501Z,12.90
2019-03-24T09:21:23.746Z,13.30
2019-03-24T09:23:53.025Z,14.33
2019-03-24T09:26:29.997Z,13.60
2019-03-24T09:28:59.472Z,13.93
2019-03-24T09:31:28.865Z,15.00
2019-03-24T09:33:58.223Z,16.63
2019-03-24T09:36:27.464Z,15.63
2019-03-24T09:38:56.827Z,15.27
2019-03-24T09:41:26.157Z,14.70
2019-03-24T09:43:57.795Z,16.87
2019-03-24T09:46:27.032Z,13.97
2019-03-24T09:49:03.123Z,16.70
2019-03-24T09:51:27.269Z,14.60
2019-03-24T09:53:56.598Z,13.60
2019-03-24T09:56:25.843Z,15.10
2019-03-24T09:58:55.182Z,14.90
2019-03-24T10:01:24.422Z,13.60
2019-03-24T10:03:53.721Z,12.53
2019-03-24T10:06:23.065Z,14.00
2019-03-24T10:08:52.328Z,13.77
2019-03-24T10:11:21.616Z,13.13
2019-03-24T10:13:50.925Z,12.30
2019-03-24T10:16:20.175Z,11.97
2019-03-24T10:18:49.451Z,12.73
2019-03-24T10:21:38.151Z,12.17
2019-03-24T10:24:08.034Z,11.47
2019-03-24T10:26:37.359Z,11.17
2019-03-24T10:29:06.611Z,11.90
2019-03-24T10:31:35.966Z,10.93
2019-03-24T10:34:05.235Z,11.63
2019-03-24T10:36:53.839Z,12.30
2019-03-24T10:39:23.115Z,12.30
2019-03-24T10:41:52.394Z,12.00
2019-03-24T10:44:22.770Z,10.80
2019-03-24T10:46:52.042Z,11.67
2019-03-24T10:49:25.113Z,15.07
2019-03-24T10:51:52.409Z,11.57
2019-03-24T10:54:21.939Z,11.40
2019-03-24T10:56:51.262Z,10.47
2019-03-24T10:59:20.519Z,11.57
2019-03-24T11:01:49.839Z,9.27
2019-03-24T11:04:19.083Z,10.37
2019-03-24T11:06:48.454Z,10.03
2019-03-24T11:09:17.672Z,8.57
2019-03-24T11:11:47.095Z,10.00
2019-03-24T11:14:16.353Z,9.33
2019-03-24T11:16:45.618Z,10.87
2019-03-24T11:19:14.979Z,9.90
2019-03-24T11:21:44.298Z,8.60
2019-03-24T11:24:13.612Z,9.20
2019-03-24T11:26:42.984Z,9.97
2019-03-24T11:29:12.244Z,8.93
2019-03-24T11:31:41.503Z,9.80
2019-03-24T11:34:30.167Z,8.47
2019-03-24T11:36:59.493Z,8.67
2019-03-24T11:39:28.797Z,8.90
2019-03-24T11:41:58.266Z,8.13
2019-03-24T11:44:27.507Z,8.63
2019-03-24T11:46:56.804Z,8.23
2019-03-24T11:49:26.155Z,7.90
2019-03-24T11:51:55.407Z,8.60
2019-03-24T11:54:24.682Z,7.23
2019-03-24T11:56:53.934Z,8.47
2019-03-24T11:59:23.329Z,8.57
2019-03-24T12:01:52.740Z,8.30
2019-03-24T12:04:22.026Z,9.73
2019-03-24T12:06:51.343Z,8.83
2019-03-24T12:09:23.185Z,9.27
2019-03-24T12:12:11.870Z,7.80
2019-03-24T12:14:41.121Z,7.60
2019-03-24T12:17:10.410Z,8.40
2019-03-24T12:19:39.733Z,7.20
2019-03-24T12:22:09.038Z,8.10
2019-03-24T12:24:57.655Z,7.20
2019-03-24T12:27:26.899Z,6.83
2019-03-24T12:29:56.177Z,7.93
2019-03-24T12:32:25.438Z,7.20
2019-03-24T12:34:54.677Z,6.53
2019-03-24T12:37:23.970Z,6.80
2019-03-24T12:39:53.313Z,6.77
2019-03-24T12:42:22.615Z,7.53
2019-03-24T12:44:51.940Z,8.00
2019-03-24T12:47:21.199Z,5.93
2019-03-24T12:49:52.101Z,5.20
2019-03-24T12:52:21.334Z,5.20
2019-03-24T12:54:50.643Z,5.47
2019-03-24T12:57:20.005Z,5.57
2019-03-24T12:59:49.257Z,4.90
2019-03-24T13:02:18.593Z,3.20
2019-03-24T13:04:50.717Z,3.90
2019-03-24T13:07:39.279Z,3.70
2019-03-24T13:10:09.132Z,4.33
2019-03-24T13:12:38.381Z,4.17
2019-03-24T13:15:08.262Z,4.00
2019-03-24T13:17:37.822Z,4.30
2019-03-24T13:20:07.829Z,3.43
2019-03-24T13:22:37.179Z,3.47
2019-03-24T13:25:07.561Z,3.60
2019-03-24T13:27:36.896Z,5.13
2019-03-24T13:30:07.679Z,4.60
2019-03-24T13:32:37.054Z,3.80
2019-03-24T13:35:06.643Z,4.00
2019-03-24T13:37:35.957Z,3.47
2019-03-24T13:40:05.322Z,3.63
2019-03-24T13:42:34.587Z,3.47
2019-03-24T13:45:23.176Z,2.80
2019-03-24T13:48:11.792Z,3.70
2019-03-24T13:50:41.026Z,3.40
2019-03-24T13:53:10.315Z,2.90
2019-03-24T13:55:39.655Z,3.13
2019-03-24T13:58:28.336Z,2.27
2019-03-24T14:00:57.660Z,2.37
2019-03-24T14:03:26.906Z,2.50
2019-03-24T14:05:56.224Z,2.87
2019-03-24T14:08:25.583Z,4.30
2019-03-24T14:10:54.845Z,2.77
2019-03-24T14:13:24.125Z,3.13
2019-03-24T14:15:53.511Z,2.67
2019-03-24T14:18:22.787Z,3.03
2019-03-24T14:20:52.046Z,2.10
2019-03-24T14:23:21.288Z,1.90
2019-03-24T14:25:50.632Z,2.20
2019-03-24T14:28:19.971Z,2.33
2019-03-24T14:30:49.689Z,2.50
2019-03-24T14:33:19.190Z,1.80
2019-03-24T14:35:48.435Z,2.10
2019-03-24T14:38:17.838Z,2.03
2019-03-24T14:40:47.292Z,1.90
2019-03-24T14:43:16.659Z,1.87
2019-03-24T14:45:46.056Z,1.80
2019-03-24T14:48:15.401Z,2.50
2019-03-24T14:50:54.064Z,2.37
2019-03-24T14:53:15.686Z,2.17
2019-03-24T14:55:45.017Z,2.90
2019-03-24T14:58:14.490Z,1.77
2019-03-24T15:01:03.215Z,2.13
2019-03-24T15:03:32.599Z,2.50
2019-03-24T15:06:01.892Z,1.80
2019-03-24T15:08:31.155Z,1.87
2019-03-24T15:11:00.534Z,2.63
2019-03-24T15:13:29.847Z,2.60
2019-03-24T15:15:59.089Z,2.77
2019-03-24T15:18:28.343Z,2.60
2019-03-24T15:21:05.546Z,3.20
2019-03-24T15:23:28.601Z,3.53
2019-03-24T15:25:57.953Z,2.93
2019-03-24T15:28:27.234Z,2.30
2019-03-24T15:30:56.556Z,2.90
2019-03-24T15:33:26.369Z,2.23
2019-03-24T15:35:55.649Z,2.07
2019-03-24T15:38:25.018Z,2.77
2019-03-24T15:40:54.360Z,2.60
2019-03-24T15:43:23.647Z,2.47
2019-03-24T15:45:53.062Z,2.70
2019-03-24T15:48:22.305Z,2.77
2019-03-24T15:50:51.633Z,3.33
2019-03-24T15:53:20.958Z,3.43
2019-03-24T15:55:50.312Z,3.40
2019-03-24T15:58:19.663Z,3.97
2019-03-24T16:00:50.244Z,4.50
2019-03-24T16:03:19.591Z,3.50
2019-03-24T16:05:48.945Z,3.90
2019-03-24T16:08:18.303Z,4.80
2019-03-24T16:10:47.577Z,5.27
2019-03-24T16:13:16.831Z,5.10
2019-03-24T16:15:46.173Z,4.70
2019-03-24T16:18:15.498Z,5.23
2019-03-24T16:20:44.838Z,5.70
2019-03-24T16:23:18.756Z,5.90
2019-03-24T16:26:07.380Z,6.40
2019-03-24T16:28:36.694Z,6.23
2019-03-24T16:31:06.006Z,5.20
2019-03-24T16:33:35.278Z,5.70
2019-03-24T16:36:04.587Z,5.50
2019-03-24T16:38:33.879Z,5.50
2019-03-24T16:41:03.168Z,5.07
2019-03-24T16:43:51.832Z,5.47
2019-03-24T16:46:21.165Z,4.83
2019-03-24T16:48:50.406Z,4.50
2019-03-24T16:51:19.730Z,4.83
2019-03-24T16:53:49.029Z,4.73
2019-03-24T16:56:18.282Z,4.47
2019-03-24T16:58:47.927Z,4.00
2019-03-24T17:01:17.343Z,5.50
2019-03-24T17:03:46.661Z,4.90
2019-03-24T17:06:16.031Z,5.13
2019-03-24T17:08:45.371Z,3.97
2019-03-24T17:11:14.662Z,5.10
2019-03-24T17:13:44.048Z,4.47
2019-03-24T17:16:13.400Z,4.07
2019-03-24T17:18:42.655Z,4.37
2019-03-24T17:21:11.905Z,3.93
2019-03-24T17:23:41.175Z,3.73
2019-03-24T17:26:10.505Z,4.10
2019-03-24T17:28:39.782Z,3.23
2019-03-24T17:31:09.020Z,3.30
2019-03-24T17:33:38.302Z,3.83
2019-03-24T17:36:07.631Z,3.57
2019-03-24T17:38:36.890Z,3.87
2019-03-24T17:41:06.162Z,3.60
2019-03-24T17:43:35.420Z,3.30
2019-03-24T17:46:04.750Z,2.70
2019-03-24T17:48:34.030Z,3.13
2019-03-24T17:51:03.334Z,3.77
2019-03-24T17:53:32.782Z,3.20
2019-03-24T17:56:04.338Z,2.70
2019-03-24T17:58:33.602Z,5.20
2019-03-24T18:01:02.842Z,3.20
2019-03-24T18:03:32.105Z,3.20
2019-03-24T18:06:01.405Z,4.20
2019-03-24T18:08:30.807Z,3.70
2019-03-24T18:11:00.176Z,4.60
2019-03-24T18:13:29.498Z,4.53
2019-03-24T18:16:00.219Z,5.10
2019-03-24T18:18:29.540Z,3.30
2019-03-24T18:20:58.770Z,3.40
2019-03-24T18:23:28.062Z,3.67
2019-03-24T18:25:57.410Z,3.47
2019-03-24T18:28:26.826Z,3.80
2019-03-24T18:30:56.151Z,3.93
2019-03-24T18:33:25.425Z,3.40
2019-03-24T18:35:54.686Z,4.37
2019-03-24T18:38:26.144Z,5.00
2019-03-24T18:40:55.540Z,4.70
2019-03-24T18:43:26.837Z,3.80
2019-03-24T18:45:55.974Z,3.80
2019-03-24T18:48:29.049Z,3.43
2019-03-24T18:50:59.767Z,3.43
2019-03-24T18:53:29.064Z,5.07
2019-03-24T18:55:58.467Z,6.23
2019-03-24T18:58:27.779Z,8.43
2019-03-24T19:00:57.057Z,10.03
2019-03-24T19:03:29.171Z,9.07
2019-03-24T19:05:58.416Z,7.87
2019-03-24T19:08:27.754Z,6.17
2019-03-24T19:11:16.498Z,5.47
2019-03-24T19:13:45.794Z,5.77
2019-03-24T19:16:15.192Z,8.40
2019-03-24T19:18:46.065Z,7.83
2019-03-24T19:21:34.694Z,8.17
2019-03-24T19:24:04.068Z,6.50
2019-03-24T19:26:33.401Z,5.60
2019-03-24T19:29:02.671Z,5.20
2019-03-24T19:31:32.084Z,5.10
2019-03-24T19:34:01.405Z,6.13
2019-03-24T19:36:30.715Z,5.07
2019-03-24T19:39:00.301Z,5.10
2019-03-24T19:41:29.572Z,5.33
2019-03-24T19:43:58.868Z,5.63
2019-03-24T19:46:50.569Z,5.33
2019-03-24T19:49:19.833Z,4.40
2019-03-24T19:52:08.504Z,4.70
2019-03-24T19:54:37.826Z,5.00
2019-03-24T19:57:07.167Z,4.40
2019-03-24T19:59:36.546Z,4.40
2019-03-24T20:02:05.983Z,6.17
2019-03-24T20:04:35.356Z,6.20
2019-03-24T20:07:24.054Z,6.17
2019-03-24T20:09:53.391Z,6.40
2019-03-24T20:12:22.652Z,6.63
2019-03-24T20:14:54.899Z,5.80
2019-03-24T20:17:24.243Z,5.60
2019-03-24T20:19:53.505Z,5.40
2019-03-24T20:22:42.184Z,5.67
2019-03-24T20:25:32.392Z,5.10
2019-03-24T20:28:01.662Z,9.50
2019-03-24T20:30:31.081Z,10.17
2019-03-24T20:33:03.371Z,8.30
2019-03-24T20:35:35.667Z,6.47
2019-03-24T20:38:05.008Z,6.50
2019-03-24T20:40:34.419Z,5.63
2019-03-24T20:43:03.705Z,4.40
2019-03-24T20:45:34.073Z,4.13
2019-03-24T20:48:03.407Z,4.70
2019-03-24T20:50:36.088Z,5.40
2019-03-24T20:53:17.333Z,4.90
2019-03-24T20:55:36.607Z,4.30
2019-03-24T20:58:05.871Z,4.30
2019-03-24T21:00:36.448Z,4.00
2019-03-24T21:03:07.073Z,3.50
2019-03-24T21:05:36.558Z,3.70
2019-03-24T21:08:06.721Z,7.13
2019-03-24T21:10:35.970Z,4.67
2019-03-24T21:13:24.597Z,3.77
2019-03-24T21:15:53.866Z,3.43
2019-03-24T21:18:23.365Z,4.10
2019-03-24T21:20:52.743Z,4.10
2019-03-24T21:23:41.477Z,5.37
2019-03-24T21:26:11.282Z,6.20
2019-03-24T21:28:40.886Z,6.67
2019-03-24T21:31:10.141Z,6.63
2019-03-24T21:33:39.406Z,5.50
2019-03-24T21:36:08.659Z,5.67
2019-03-24T21:38:37.928Z,5.40
2019-03-24T21:41:26.627Z,5.87
2019-03-24T21:43:55.899Z,5.20
2019-03-24T21:46:25.131Z,5.03
2019-03-24T21:48:54.378Z,4.70
2019-03-24T21:51:23.757Z,4.00
2019-03-24T21:53:53.002Z,3.53
2019-03-24T21:56:41.621Z,4.80
2019-03-24T21:59:13.934Z,5.37
2019-03-24T22:01:43.311Z,4.50
2019-03-24T22:04:12.636Z,4.63
2019-03-24T22:06:43.505Z,5.17
2019-03-24T22:09:32.195Z,4.97
2019-03-24T22:12:01.799Z,5.53
2019-03-24T22:14:31.579Z,5.37
2019-03-24T22:17:03.786Z,4.50
2019-03-24T22:19:52.395Z,5.53
2019-03-24T22:22:23.286Z,5.40
2019-03-24T22:24:52.568Z,4.63
2019-03-24T22:27:22.166Z,5.47
2019-03-24T22:29:52.047Z,5.17
2019-03-24T22:32:21.327Z,5.47
2019-03-24T22:34:50.570Z,4.50
2019-03-24T22:37:19.806Z,5.43
2019-03-24T22:39:49.139Z,4.83
2019-03-24T22:42:18.462Z,5.00
2019-03-24T22:44:47.720Z,5.10
2019-03-24T22:47:16.968Z,5.23
2019-03-24T22:49:46.358Z,6.03
2019-03-24T22:52:15.618Z,4.77
2019-03-24T22:54:44.850Z,5.13
2019-03-24T22:57:14.102Z,4.60
2019-03-24T22:59:43.346Z,5.67
2019-03-24T23:02:12.954Z,5.27
2019-03-24T23:04:42.254Z,5.87
2019-03-24T23:07:11.567Z,4.60
2019-03-24T23:09:40.879Z,3.87
2019-03-24T23:12:10.145Z,4.70
2019-03-24T23:14:40.936Z,4.20
2019-03-24T23:17:10.155Z,4.63
2019-03-24T23:19:39.476Z,4.33
2019-03-24T23:22:08.796Z,4.17
2019-03-24T23:24:38.072Z,4.17
2019-03-24T23:27:07.371Z,3.70
2019-03-24T23:29:36.640Z,4.80
2019-03-24T23:32:06.000Z,4.60
2019-03-24T23:34:35.251Z,4.90
2019-03-24T23:37:04.521Z,4.50
2019-03-24T23:39:33.834Z,4.97
2019-03-24T23:42:03.311Z,4.27
2019-03-24T23:44:34.235Z,5.73
2019-03-24T23:47:03.516Z,5.40
2019-03-24T23:49:32.807Z,5.47
2019-03-24T23:52:02.235Z,4.40
2019-03-24T23:54:32.994Z,5.20
2019-03-24T23:57:02.251Z,5.00
2019-03-24T23:59:31.486Z,5.47
